Time;durP1;ratioP1;P1;durP2;ratioP2;P2;SDS_P1;SDS_P2;PMS_P1;PMS_P2;Temp;Humidity;BMP_temperature;BMP_pressure;BME280_temperature;BME280_humidity;BME280_pressure;Samples;Min_cycle;Max_cycle;Signal;HPM_P1;HPM_P2
2021/05/17 00:01:41;;;;;;;3.47;1.85;;;12.80;99.90;;;;;;4142865;28;20061;-81
2021/05/17 00:03:45;;;;;;;3.42;1.75;;;12.80;99.90;;;;;;4110978;28;20027;-81
2021/05/17 00:05:46;;;;;;;3.47;2.00;;;12.80;99.90;;;;;;4144453;28;20041;-81
2021/05/17 00:07:47;;;;;;;5.88;1.73;;;12.80;99.90;;;;;;4126904;28;20084;-81
2021/05/17 00:09:47;;;;;;;3.22;2.20;;;12.90;99.90;;;;;;4111799;28;20035;-81
2021/05/17 00:11:48;;;;;;;3.03;1.75;;;12.90;99.90;;;;;;4111968;28;20118;-81
2021/05/17 00:13:49;;;;;;;4.13;1.70;;;12.90;99.90;;;;;;4126622;28;20030;-81
2021/05/17 00:15:50;;;;;;;3.17;1.70;;;13.00;99.90;;;;;;4127720;28;20064;-81
2021/05/17 00:17:53;;;;;;;3.15;1.73;;;13.00;99.90;;;;;;4125859;28;20062;-80
2021/05/17 00:19:55;;;;;;;2.63;1.67;;;13.00;99.90;;;;;;4126536;28;20026;-81
2021/05/17 00:21:56;;;;;;;2.53;1.70;;;13.00;99.90;;;;;;4128337;28;20042;-81
2021/05/17 00:23:57;;;;;;;3.47;2.00;;;13.10;99.90;;;;;;4109464;28;20765;-81
2021/05/17 00:25:58;;;;;;;2.85;1.80;;;13.10;99.90;;;;;;4110160;28;20064;-81
2021/05/17 00:27:59;;;;;;;3.33;1.90;;;13.10;99.90;;;;;;4111176;28;20164;-81
2021/05/17 00:30:00;;;;;;;2.47;1.55;;;13.10;99.90;;;;;;4127330;28;20511;-81
2021/05/17 00:32:01;;;;;;;3.03;1.90;;;13.10;99.90;;;;;;4126884;28;20031;-81
2021/05/17 00:34:02;;;;;;;2.55;1.77;;;13.10;99.90;;;;;;4126486;28;20185;-81
2021/05/17 00:36:03;;;;;;;4.85;2.00;;;13.10;99.90;;;;;;4126427;28;20125;-81
2021/05/17 00:38:03;;;;;;;4.18;2.45;;;13.10;99.90;;;;;;4126085;28;20089;-81
2021/05/17 00:40:05;;;;;;;4.25;1.90;;;13.00;99.90;;;;;;4110344;28;20082;-81
2021/05/17 00:42:07;;;;;;;2.13;1.38;;;13.00;99.90;;;;;;4110482;28;20106;-81
2021/05/17 00:44:08;;;;;;;4.10;1.90;;;13.00;99.90;;;;;;4125305;28;20034;-81
2021/05/17 00:46:10;;;;;;;3.55;1.83;;;13.00;99.90;;;;;;4119799;28;20027;-81
2021/05/17 00:48:12;;;;;;;3.70;1.60;;;13.00;99.90;;;;;;4111206;28;20027;-81
2021/05/17 00:50:16;;;;;;;2.20;1.52;;;13.00;99.90;;;;;;4110538;28;20049;-81
2021/05/17 00:52:18;;;;;;;4.10;1.45;;;13.00;99.90;;;;;;4107577;28;20070;-81
2021/05/17 00:54:19;;;;;;;3.55;1.85;;;13.00;99.90;;;;;;4125180;28;20041;-81
2021/05/17 00:56:20;;;;;;;2.20;1.27;;;12.90;99.90;;;;;;4127034;28;20379;-81
2021/05/17 00:58:21;;;;;;;3.17;1.80;;;12.90;99.90;;;;;;4125381;28;20359;-81
2021/05/17 01:00:24;;;;;;;3.10;1.80;;;13.00;99.90;;;;;;4125739;28;20042;-81
2021/05/17 01:02:25;;;;;;;3.58;1.50;;;13.00;99.90;;;;;;4126139;28;20089;-81
2021/05/17 01:04:26;;;;;;;2.13;1.70;;;13.00;99.90;;;;;;4126038;28;20067;-81
2021/05/17 01:06:29;;;;;;;3.10;1.58;;;13.00;99.90;;;;;;4126173;28;20039;-81
2021/05/17 01:08:39;;;;;;;2.72;1.50;;;13.00;99.90;;;;;;4125919;28;20057;-81
2021/05/17 01:10:44;;;;;;;2.42;1.45;;;13.00;99.90;;;;;;4125670;28;20031;-81
2021/05/17 01:12:46;;;;;;;1.52;1.23;;;13.00;99.90;;;;;;4125870;28;20040;-81
2021/05/17 01:14:47;;;;;;;2.50;1.40;;;13.00;99.90;;;;;;4127262;28;20406;-81
2021/05/17 01:16:49;;;;;;;2.97;1.50;;;13.00;99.90;;;;;;4126025;28;20065;-80
2021/05/17 01:18:51;;;;;;;2.72;1.35;;;13.00;99.90;;;;;;4122810;28;20584;-81
2021/05/17 01:20:55;;;;;;;2.70;1.52;;;13.00;99.90;;;;;;4126077;28;20147;-81
2021/05/17 01:25:24;;;;;;;2.50;1.70;;;13.00;99.90;;;;;;4118934;28;20122;-81
2021/05/17 01:27:25;;;;;;;3.75;1.35;;;13.00;99.90;;;;;;4110663;28;20113;-81
2021/05/17 01:29:26;;;;;;;2.08;1.58;;;13.00;99.90;;;;;;4126119;28;20085;-81
2021/05/17 01:31:27;;;;;;;2.97;1.60;;;13.00;99.90;;;;;;4125740;28;20502;-80
2021/05/17 01:33:32;;;;;;;1.40;1.25;;;13.00;99.90;;;;;;4125588;28;20117;-81
2021/05/17 01:35:33;;;;;;;4.82;1.65;;;13.00;99.90;;;;;;4108813;28;20420;-81
2021/05/17 01:37:38;;;;;;;3.70;1.88;;;13.00;99.90;;;;;;4126306;28;20046;-81
2021/05/17 01:39:41;;;;;;;2.53;1.20;;;13.00;99.90;;;;;;4126847;28;20034;-81
2021/05/17 01:41:42;;;;;;;1.90;1.58;;;13.00;99.90;;;;;;4125854;28;20033;-81
2021/05/17 01:43:46;;;;;;;3.97;1.73;;;13.00;99.90;;;;;;4110377;28;20030;-81
2021/05/17 01:45:47;;;;;;;1.95;1.30;;;13.00;99.90;;;;;;4143064;28;20034;-81
2021/05/17 01:47:49;;;;;;;3.63;1.52;;;12.90;99.90;;;;;;4125577;28;20124;-81
2021/05/17 01:49:53;;;;;;;2.35;1.50;;;12.90;99.90;;;;;;4125226;28;20421;-81
2021/05/17 01:51:54;;;;;;;1.77;1.40;;;12.90;99.90;;;;;;4110436;28;20078;-81
2021/05/17 01:53:57;;;;;;;2.53;1.30;;;12.90;99.90;;;;;;4127482;28;20031;-81
2021/05/17 01:55:58;;;;;;;1.98;1.33;;;12.90;99.90;;;;;;4125725;28;20104;-81
2021/05/17 01:58:09;;;;;;;2.17;1.25;;;12.90;99.90;;;;;;4125859;28;20109;-81
2021/05/17 02:00:13;;;;;;;2.20;1.30;;;12.80;99.90;;;;;;4123485;28;20038;-81
2021/05/17 02:02:14;;;;;;;4.93;1.67;;;12.80;99.90;;;;;;4126651;28;20042;-81
2021/05/17 02:04:15;;;;;;;1.85;1.35;;;12.80;99.90;;;;;;4125579;28;20046;-81
2021/05/17 02:06:17;;;;;;;3.58;1.30;;;12.80;99.90;;;;;;4125830;28;20522;-81
2021/05/17 02:08:19;;;;;;;3.45;1.30;;;12.70;99.90;;;;;;4126325;28;20038;-81
2021/05/17 02:10:20;;;;;;;3.20;1.63;;;12.70;99.90;;;;;;4125566;28;20049;-81
2021/05/17 02:12:23;;;;;;;4.03;1.45;;;12.70;99.90;;;;;;4109810;28;20043;-81
2021/05/17 02:14:25;;;;;;;5.85;1.73;;;12.70;99.90;;;;;;4125045;28;20031;-81
2021/05/17 02:16:25;;;;;;;2.00;1.30;;;12.70;99.90;;;;;;4125941;28;20057;-81
2021/05/17 02:18:26;;;;;;;3.33;1.20;;;12.70;99.90;;;;;;4108497;28;20066;-81
2021/05/17 02:20:30;;;;;;;3.65;1.55;;;12.60;99.90;;;;;;4109165;28;20050;-82
2021/05/17 02:22:31;;;;;;;2.28;1.10;;;12.60;99.90;;;;;;4124469;28;20334;-81
2021/05/17 02:24:32;;;;;;;2.70;1.35;;;12.70;99.90;;;;;;4108889;28;20038;-81
2021/05/17 02:26:33;;;;;;;2.42;1.27;;;12.60;99.90;;;;;;4110270;28;20038;-81
2021/05/17 02:28:38;;;;;;;2.53;1.27;;;12.60;99.90;;;;;;4125497;28;20557;-81
2021/05/17 02:30:40;;;;;;;2.92;1.30;;;12.60;99.90;;;;;;4124967;28;20043;-81
2021/05/17 02:32:41;;;;;;;2.70;1.15;;;12.50;99.90;;;;;;4124825;28;20030;-81
2021/05/17 02:34:41;;;;;;;5.82;1.40;;;12.50;99.90;;;;;;4124378;28;20356;-81
2021/05/17 02:36:42;;;;;;;2.08;1.20;;;12.50;99.90;;;;;;4127363;28;20101;-81
2021/05/17 02:38:43;;;;;;;2.55;1.15;;;12.50;99.90;;;;;;4109586;28;20042;-81
2021/05/17 02:40:45;;;;;;;4.88;1.55;;;12.50;99.90;;;;;;4108467;28;20471;-81
2021/05/17 02:42:47;;;;;;;1.88;0.95;;;12.50;99.90;;;;;;4126770;28;20093;-81
2021/05/17 02:44:48;;;;;;;3.08;1.13;;;12.50;99.90;;;;;;4125901;28;20065;-81
2021/05/17 02:46:56;;;;;;;2.58;1.23;;;12.50;99.90;;;;;;4108534;28;20038;-81
2021/05/17 02:48:57;;;;;;;3.90;1.80;;;12.50;99.90;;;;;;4126271;28;20030;-81
2021/05/17 02:50:59;;;;;;;5.38;1.33;;;12.40;99.90;;;;;;4123549;28;20538;-81
2021/05/17 02:53:00;;;;;;;3.65;1.38;;;12.40;99.90;;;;;;4109582;28;20031;-81
2021/05/17 02:55:08;;;;;;;3.40;1.00;;;12.40;99.90;;;;;;4141277;28;20044;-81
2021/05/17 02:57:13;;;;;;;2.53;1.25;;;12.30;99.90;;;;;;4123851;28;20577;-81
2021/05/17 02:59:21;;;;;;;2.17;1.02;;;12.30;99.90;;;;;;4107720;28;20491;-81
2021/05/17 03:01:36;;;;;;;1.55;1.25;;;12.30;99.90;;;;;;4122385;28;20035;-81
2021/05/17 03:03:45;;;;;;;1.70;0.98;;;12.30;99.90;;;;;;4121541;28;20065;-81
2021/05/17 03:05:55;;;;;;;1.27;0.75;;;12.30;99.90;;;;;;4125429;28;20053;-81
2021/05/17 03:08:01;;;;;;;2.95;1.02;;;12.30;99.90;;;;;;4124929;28;20354;-81
2021/05/17 03:10:04;;;;;;;1.15;0.90;;;12.30;99.90;;;;;;4124544;28;20487;-81
2021/05/17 03:12:08;;;;;;;3.83;1.17;;;12.30;99.90;;;;;;4127101;28;20034;-81
2021/05/17 03:14:10;;;;;;;1.83;1.00;;;12.30;99.90;;;;;;4124296;28;20061;-81
2021/05/17 03:16:13;;;;;;;2.15;0.98;;;12.30;99.90;;;;;;4124899;28;20062;-81
2021/05/17 03:18:14;;;;;;;5.53;1.00;;;12.30;99.90;;;;;;4107967;28;20035;-81
2021/05/17 03:20:15;;;;;;;2.63;1.17;;;12.30;99.90;;;;;;4123431;28;20132;-81
2021/05/17 03:22:16;;;;;;;1.98;1.10;;;12.30;99.90;;;;;;4124584;28;20045;-81
2021/05/17 03:24:17;;;;;;;0.98;0.82;;;12.30;99.90;;;;;;4109497;28;20054;-81
2021/05/17 03:26:19;;;;;;;1.25;0.93;;;12.20;99.90;;;;;;4123222;28;20049;-81
2021/05/17 03:28:20;;;;;;;1.23;0.82;;;12.20;99.90;;;;;;4124905;28;20066;-81
2021/05/17 03:30:21;;;;;;;1.98;0.70;;;12.20;99.90;;;;;;4124344;28;20073;-81
2021/05/17 03:32:24;;;;;;;3.53;0.90;;;12.30;99.90;;;;;;4108246;28;20404;-81
2021/05/17 03:34:25;;;;;;;;;;;12.20;99.90;;;;;;4108919;28;20030;-81
2021/05/17 03:36:25;;;;;;;2.55;1.10;;;12.20;99.90;;;;;;4116443;28;19909;-81
2021/05/17 03:38:26;;;;;;;1.85;0.88;;;12.20;99.90;;;;;;4107420;28;20034;-81
2021/05/17 03:40:27;;;;;;;2.28;1.30;;;12.20;99.90;;;;;;4125601;28;20038;-81
2021/05/17 03:42:27;;;;;;;2.25;1.10;;;12.20;99.90;;;;;;4108007;28;20042;-81
2021/05/17 03:44:28;;;;;;;2.08;0.95;;;12.10;99.90;;;;;;4123518;28;20231;-81
2021/05/17 03:46:29;;;;;;;1.83;1.10;;;12.10;99.90;;;;;;4108103;28;20450;-81
2021/05/17 03:48:29;;;;;;;2.40;0.73;;;12.10;99.90;;;;;;4108412;28;20041;-81
2021/05/17 03:50:30;;;;;;;2.63;0.85;;;12.20;99.90;;;;;;4124176;28;20113;-81
2021/05/17 03:52:30;;;;;;;2.47;0.75;;;12.20;99.90;;;;;;4108771;28;20097;-81
2021/05/17 03:54:31;;;;;;;1.90;0.60;;;12.20;99.90;;;;;;4124691;28;20112;-81
2021/05/17 03:56:32;;;;;;;1.70;0.80;;;12.20;99.90;;;;;;4107667;28;20479;-81
2021/05/17 03:58:32;;;;;;;2.78;0.98;;;12.20;99.90;;;;;;4108669;28;20043;-81
2021/05/17 04:00:33;;;;;;;1.27;0.80;;;12.20;99.90;;;;;;4107572;28;20035;-81
2021/05/17 04:02:34;;;;;;;2.30;0.90;;;12.20;99.90;;;;;;4123674;28;20239;-81
2021/05/17 04:04:50;;;;;;;3.33;1.08;;;12.20;99.90;;;;;;4124521;28;20109;-81
2021/05/17 04:07:04;;;;;;;1.15;0.80;;;12.20;99.90;;;;;;4124676;28;20073;-81
2021/05/17 04:13:43;;;;;;;2.20;0.95;;;12.10;99.90;;;;;;4125575;28;20520;-81
2021/05/17 04:15:44;;;;;;;3.35;1.15;;;12.20;99.90;;;;;;4124080;28;20341;-81
2021/05/17 04:17:45;;;;;;;1.58;0.90;;;12.10;99.90;;;;;;4107505;28;20035;-81
2021/05/17 04:19:45;;;;;;;1.42;0.63;;;12.10;99.90;;;;;;4142990;28;20494;-81
2021/05/17 04:21:46;;;;;;;2.05;1.00;;;12.10;99.90;;;;;;4110631;28;20039;-81
2021/05/17 04:23:47;;;;;;;1.83;0.98;;;12.10;99.90;;;;;;4143922;28;20116;-81
2021/05/17 04:25:48;;;;;;;1.55;0.90;;;12.10;99.90;;;;;;4127638;28;20089;-81
2021/05/17 04:27:48;;;;;;;2.45;0.93;;;12.20;99.90;;;;;;4111500;28;20054;-81
2021/05/17 04:29:49;;;;;;;1.35;0.88;;;12.20;99.90;;;;;;4125420;28;20038;-81
2021/05/17 04:31:52;;;;;;;2.40;0.90;;;12.20;99.90;;;;;;4104246;28;20035;-81
2021/05/17 04:33:53;;;;;;;1.85;0.70;;;12.20;99.90;;;;;;4121213;28;20117;-81
2021/05/17 04:35:54;;;;;;;2.35;1.00;;;12.20;99.90;;;;;;4122567;28;20111;-81
2021/05/17 04:37:55;;;;;;;1.70;0.85;;;12.20;99.90;;;;;;4106773;28;20121;-81
2021/05/17 04:39:55;;;;;;;1.10;0.80;;;12.10;99.90;;;;;;4126000;28;20027;-81
2021/05/17 04:41:56;;;;;;;2.20;1.02;;;12.10;99.90;;;;;;4118816;28;20196;-81
2021/05/17 04:43:57;;;;;;;2.72;0.90;;;12.20;99.90;;;;;;4110876;28;20058;-81
2021/05/17 04:45:57;;;;;;;1.33;0.70;;;12.20;99.90;;;;;;4121064;28;20548;-81
2021/05/17 04:47:59;;;;;;;2.70;1.20;;;12.20;99.90;;;;;;4127248;28;20119;-81
2021/05/17 04:49:59;;;;;;;1.92;0.82;;;12.20;99.90;;;;;;4104629;28;20126;-81
2021/05/17 04:52:00;;;;;;;3.90;0.90;;;12.20;99.90;;;;;;4121051;28;20685;-81
2021/05/17 04:54:01;;;;;;;2.38;0.77;;;12.20;99.90;;;;;;4123206;28;20034;-81
2021/05/17 04:56:01;;;;;;;1.85;0.90;;;12.20;99.90;;;;;;4108129;28;20055;-81
2021/05/17 04:58:02;;;;;;;1.48;0.80;;;12.20;99.90;;;;;;4120374;28;20094;-81
2021/05/17 05:00:05;;;;;;;1.25;0.75;;;12.20;99.90;;;;;;4121632;28;20034;-81
2021/05/17 05:02:06;;;;;;;1.92;0.80;;;12.20;99.90;;;;;;4124151;28;20499;-81
2021/05/17 05:04:07;;;;;;;1.73;0.88;;;12.20;99.90;;;;;;4103973;28;20038;-81
2021/05/17 05:06:08;;;;;;;3.50;1.10;;;12.30;99.90;;;;;;4125904;28;20054;-81
2021/05/17 05:08:08;;;;;;;2.72;1.08;;;12.30;99.90;;;;;;4126321;28;20251;-81
2021/05/17 05:10:09;;;;;;;3.30;1.15;;;12.20;99.90;;;;;;4142941;28;20117;-81
2021/05/17 05:12:10;;;;;;;2.50;1.20;;;12.30;99.90;;;;;;4125423;28;20038;-81
2021/05/17 05:14:11;;;;;;;2.83;1.05;;;12.20;99.90;;;;;;4124519;28;20072;-82
2021/05/17 05:16:11;;;;;;;4.03;0.95;;;12.20;99.90;;;;;;4125646;28;20072;-82
2021/05/17 05:18:12;;;;;;;4.78;1.35;;;12.30;99.90;;;;;;4108132;28;20212;-82
2021/05/17 05:20:13;;;;;;;3.42;0.93;;;12.30;99.90;;;;;;4123080;28;20649;-82
2021/05/17 05:22:13;;;;;;;2.53;1.23;;;12.40;99.90;;;;;;4117104;28;20132;-81
2021/05/17 05:24:15;;;;;;;2.80;1.00;;;12.30;99.90;;;;;;4102431;28;20450;-82
2021/05/17 05:28:26;;;;;;;2.13;1.05;;;12.30;99.90;;;;;;4121409;28;20137;-78
2021/05/17 05:32:55;;;;;;;4.00;1.17;;;12.40;99.90;;;;;;4115008;28;20043;-78
2021/05/17 05:34:55;;;;;;;;;;;12.40;99.90;;;;;;4122329;28;20092;-79
2021/05/17 05:36:59;;;;;;;2.88;1.30;;;12.50;99.90;;;;;;4103081;28;19909;-78
2021/05/17 05:39:00;;;;;;;4.13;1.35;;;12.40;99.90;;;;;;4127095;28;20096;-78
2021/05/17 05:41:00;;;;;;;3.78;1.40;;;12.40;99.90;;;;;;4124972;28;20043;-78
2021/05/17 05:43:01;;;;;;;2.35;1.23;;;12.40;99.90;;;;;;4114975;28;20110;-78
2021/05/17 05:45:04;;;;;;;3.60;1.00;;;12.40;99.90;;;;;;4126274;28;20030;-78
2021/05/17 05:47:05;;;;;;;2.10;1.00;;;12.40;99.90;;;;;;4127551;28;20490;-78
2021/05/17 05:49:06;;;;;;;4.68;1.10;;;12.50;99.90;;;;;;4118142;28;20046;-78
2021/05/17 05:51:06;;;;;;;2.10;1.08;;;12.50;99.90;;;;;;4126602;28;20030;-78
2021/05/17 05:53:07;;;;;;;4.78;1.40;;;12.60;99.90;;;;;;4116752;28;20030;-78
2021/05/17 05:55:08;;;;;;;3.50;1.58;;;12.60;99.90;;;;;;4119498;28;20031;-78
2021/05/17 05:57:09;;;;;;;4.43;1.33;;;12.60;99.90;;;;;;4098830;28;20046;-78
2021/05/17 05:59:09;;;;;;;6.32;1.45;;;12.70;99.90;;;;;;4116652;28;20406;-78
2021/05/17 06:01:10;;;;;;;5.20;1.38;;;12.70;99.90;;;;;;4124965;28;20041;-78
2021/05/17 06:03:11;;;;;;;4.25;1.23;;;12.80;99.90;;;;;;4106448;28;20028;-78
2021/05/17 06:05:13;;;;;;;3.65;1.38;;;12.80;99.90;;;;;;4120386;28;20035;-78
2021/05/17 06:07:13;;;;;;;11.00;1.55;;;12.90;99.90;;;;;;4124580;28;20045;-78
2021/05/17 06:09:14;;;;;;;7.68;1.70;;;12.90;99.90;;;;;;4118175;28;20035;-78
2021/05/17 06:11:15;;;;;;;5.60;1.60;;;12.90;99.90;;;;;;4114704;28;20446;-78
2021/05/17 06:13:19;;;;;;;3.17;1.13;;;13.00;99.90;;;;;;4121756;28;20035;-78
2021/05/17 06:15:20;;;;;;;4.30;1.58;;;12.90;99.90;;;;;;4119250;28;20042;-78
2021/05/17 06:17:21;;;;;;;3.38;1.33;;;12.90;99.90;;;;;;4118274;28;20406;-78
2021/05/17 06:19:22;;;;;;;6.22;1.73;;;12.90;99.90;;;;;;4121571;28;20042;-78
2021/05/17 06:21:23;;;;;;;4.55;1.23;;;12.90;99.90;;;;;;4122846;28;20042;-78
2021/05/17 06:23:24;;;;;;;4.47;1.58;;;12.90;99.90;;;;;;4121184;28;20030;-78
2021/05/17 06:25:26;;;;;;;6.35;1.83;;;12.90;99.90;;;;;;4118562;28;20514;-78
2021/05/17 06:27:27;;;;;;;6.07;1.92;;;12.90;99.90;;;;;;4118951;28;20038;-78
2021/05/17 06:29:28;;;;;;;3.38;1.23;;;12.90;99.90;;;;;;4118480;28;20053;-78
2021/05/17 06:31:29;;;;;;;4.47;1.30;;;12.80;99.90;;;;;;4120248;28;20387;-78
2021/05/17 06:33:31;;;;;;;6.57;1.45;;;12.90;99.90;;;;;;4125082;28;20473;-78
2021/05/17 06:35:34;;;;;;;6.88;1.48;;;12.80;99.90;;;;;;4122301;28;20038;-78
2021/05/17 06:37:35;;;;;;;3.95;1.08;;;12.80;99.90;;;;;;4121053;28;20435;-79
2021/05/17 06:39:35;;;;;;;5.38;1.60;;;12.80;99.90;;;;;;4122683;28;20034;-78
2021/05/17 06:41:37;;;;;;;6.10;1.27;;;12.90;99.90;;;;;;4126506;28;20313;-78
2021/05/17 06:43:39;;;;;;;6.03;1.95;;;12.90;99.90;;;;;;4108814;28;21176;-78
2021/05/17 06:45:40;;;;;;;4.27;1.20;;;12.90;99.90;;;;;;4122730;28;20475;-78
2021/05/17 06:47:42;;;;;;;3.63;1.10;;;13.00;99.90;;;;;;4108093;28;20339;-78
2021/05/17 06:49:44;;;;;;;5.50;1.52;;;13.00;99.90;;;;;;4124761;28;20038;-78
2021/05/17 06:51:45;;;;;;;3.65;1.00;;;13.00;99.90;;;;;;4121988;28;20096;-78
2021/05/17 06:53:48;;;;;;;4.13;1.35;;;13.10;99.90;;;;;;4125210;28;20030;-78
2021/05/17 07:00:00;;;;;;;5.60;1.50;;;13.20;99.90;;;;;;4128804;28;20106;-79
2021/05/17 07:02:01;;;;;;;2.38;1.15;;;13.20;99.90;;;;;;4124834;28;20050;-78
2021/05/17 07:04:02;;;;;;;7.25;1.52;;;13.30;99.90;;;;;;4123603;28;20030;-78
2021/05/17 07:06:03;;;;;;;5.55;1.58;;;13.30;99.90;;;;;;4124891;28;20402;-78
2021/05/17 07:12:27;;;;;;;3.33;1.10;;;13.20;99.90;;;;;;4122082;28;20041;-79
2021/05/17 07:14:27;;;;;;;3.47;1.38;;;13.20;99.90;;;;;;4121686;28;20510;-78
2021/05/17 07:16:28;;;;;;;4.43;1.50;;;13.20;99.90;;;;;;4124658;28;20308;-78
2021/05/17 07:18:28;;;;;;;5.05;1.45;;;13.20;99.90;;;;;;4124321;28;20497;-78
2021/05/17 07:25:01;;;;;;;3.45;1.17;;;13.20;99.90;;;;;;4121815;28;20486;-79
2021/05/17 07:27:02;;;;;;;6.40;1.23;;;13.30;99.90;;;;;;4123043;28;20081;-79
2021/05/17 07:29:06;;;;;;;2.92;1.13;;;13.30;99.90;;;;;;4125679;28;20034;-79
2021/05/17 07:31:09;;;;;;;3.28;0.90;;;13.40;99.90;;;;;;4127654;28;20061;-79
2021/05/17 07:33:10;;;;;;;4.55;1.50;;;13.40;99.90;;;;;;4122696;28;20974;-79
2021/05/17 07:35:10;;;;;;;6.20;1.30;;;13.50;99.90;;;;;;4115882;28;20475;-79
2021/05/17 07:37:11;;;;;;;5.88;1.30;;;13.50;99.90;;;;;;4125212;28;20338;-79
2021/05/17 07:39:12;;;;;;;5.50;1.67;;;13.60;99.90;;;;;;4121129;28;20541;-79
2021/05/17 07:41:15;;;;;;;6.40;1.35;;;13.60;99.90;;;;;;4122637;28;20395;-79
2021/05/17 07:43:15;;;;;;;3.10;1.48;;;13.70;99.90;;;;;;4104786;28;20532;-78
2021/05/17 07:45:16;;;;;;;3.75;1.13;;;13.80;99.90;;;;;;4119480;28;20093;-78
2021/05/17 07:47:17;;;;;;;4.50;1.30;;;13.90;99.90;;;;;;4109784;28;20035;-79
2021/05/17 07:49:21;;;;;;;2.30;0.93;;;14.00;99.90;;;;;;4125038;28;20038;-79
2021/05/17 07:51:21;;;;;;;4.00;1.50;;;14.10;99.90;;;;;;4123844;28;20035;-79
2021/05/17 07:53:22;;;;;;;4.88;1.25;;;14.10;99.90;;;;;;4122576;28;20069;-78
2021/05/17 07:55:25;;;;;;;3.67;1.20;;;14.10;99.90;;;;;;4125371;28;20086;-79
2021/05/17 07:57:26;;;;;;;3.13;1.15;;;14.20;99.90;;;;;;4131353;28;20038;-79
2021/05/17 07:59:30;;;;;;;4.75;1.58;;;14.10;99.90;;;;;;4125904;28;20425;-79
2021/05/17 08:01:31;;;;;;;5.43;1.30;;;14.10;99.90;;;;;;4126276;28;20093;-78
2021/05/17 08:03:32;;;;;;;3.85;1.20;;;14.10;99.90;;;;;;4126757;28;20037;-79
2021/05/17 08:05:32;;;;;;;7.57;1.70;;;14.10;99.90;;;;;;4118931;28;20453;-79
2021/05/17 08:07:36;;;;;;;4.28;1.15;;;14.10;99.90;;;;;;4111333;28;20026;-79
2021/05/17 08:09:36;;;;;;;8.93;1.38;;;14.10;99.90;;;;;;4125457;28;20038;-78
2021/05/17 08:11:37;;;;;;;3.25;0.90;;;14.10;99.90;;;;;;4128887;28;20109;-79
2021/05/17 08:13:41;;;;;;;4.57;1.10;;;14.10;99.90;;;;;;4130316;28;20027;-79
2021/05/17 08:15:41;;;;;;;7.78;1.23;;;14.10;99.90;;;;;;4129802;28;20038;-78
2021/05/17 08:17:42;;;;;;;3.75;1.08;;;14.10;99.90;;;;;;4127597;28;20407;-78
2021/05/17 08:19:43;;;;;;;5.20;1.55;;;14.20;99.90;;;;;;4126424;28;20034;-78
2021/05/17 08:21:43;;;;;;;3.17;1.00;;;14.20;99.90;;;;;;4123631;28;20088;-79
2021/05/17 08:23:44;;;;;;;4.75;1.25;;;14.20;99.90;;;;;;4131492;28;20037;-79
2021/05/17 08:25:47;;;;;;;2.90;1.00;;;14.20;99.90;;;;;;4127607;28;20036;-78
2021/05/17 08:27:48;;;;;;;4.28;1.10;;;14.30;99.90;;;;;;4133333;28;20602;-78
2021/05/17 08:29:49;;;;;;;2.15;0.93;;;14.40;99.90;;;;;;4131462;28;20050;-78
2021/05/17 08:31:51;;;;;;;2.58;0.93;;;14.30;99.90;;;;;;4129630;28;20699;-78
2021/05/17 08:33:52;;;;;;;3.20;0.98;;;14.40;99.90;;;;;;4130604;28;20026;-78
2021/05/17 08:35:53;;;;;;;3.58;1.25;;;14.50;99.90;;;;;;4109483;28;20050;-78
2021/05/17 08:37:54;;;;;;;1.77;0.88;;;14.50;99.90;;;;;;4124999;28;20121;-78
2021/05/17 08:39:55;;;;;;;3.17;0.80;;;14.50;99.90;;;;;;4113156;28;20027;-79
2021/05/17 08:41:59;;;;;;;2.80;1.05;;;14.60;99.90;;;;;;4125852;28;20062;-79
2021/05/17 08:44:01;;;;;;;2.97;1.00;;;14.60;99.90;;;;;;4131345;28;20126;-78
2021/05/17 08:46:02;;;;;;;3.35;1.10;;;14.60;99.90;;;;;;4123494;28;20114;-78
2021/05/17 08:48:04;;;;;;;4.63;1.23;;;14.60;99.90;;;;;;4113884;28;20030;-79
2021/05/17 08:50:05;;;;;;;2.30;1.00;;;14.60;99.90;;;;;;4116952;28;20043;-80
2021/05/17 08:52:06;;;;;;;1.38;0.60;;;14.70;99.90;;;;;;4125624;28;20027;-79
2021/05/17 08:54:09;;;;;;;3.90;1.15;;;14.80;99.90;;;;;;4122449;28;20034;-79
2021/05/17 08:56:09;;;;;;;2.88;1.15;;;14.80;99.90;;;;;;4115232;28;20034;-78
2021/05/17 08:58:10;;;;;;;2.72;1.00;;;14.90;99.90;;;;;;4130011;28;20129;-79
2021/05/17 09:00:13;;;;;;;2.22;0.80;;;14.80;99.90;;;;;;4122716;28;20124;-79
2021/05/17 09:02:13;;;;;;;3.30;1.15;;;14.70;99.90;;;;;;4124951;28;20039;-78
2021/05/17 09:04:16;;;;;;;3.55;1.10;;;14.60;99.90;;;;;;4125626;28;20052;-79
2021/05/17 09:06:22;;;;;;;;;;;14.60;99.90;;;;;;4128135;28;20065;-79
2021/05/17 09:08:26;;;;;;;2.55;0.95;;;14.50;99.90;;;;;;4128262;28;19917;-79
2021/05/17 09:10:33;;;;;;;1.83;0.95;;;14.60;99.90;;;;;;4125541;28;20093;-79
2021/05/17 09:12:34;;;;;;;2.65;1.00;;;14.60;99.90;;;;;;4112095;28;20046;-79
2021/05/17 09:14:35;;;;;;;2.55;1.10;;;14.70;99.90;;;;;;4131321;28;20023;-78
2021/05/17 09:16:49;;;;;;;5.32;1.40;;;14.80;99.90;;;;;;4129017;28;20089;-79
2021/05/17 09:18:51;;;;;;;3.13;1.23;;;14.90;99.90;;;;;;4126289;28;20053;-79
2021/05/17 09:20:53;;;;;;;1.48;0.90;;;15.00;99.90;;;;;;4125911;28;20038;-79
2021/05/17 09:23:15;;;;;;;5.35;1.40;;;15.00;99.90;;;;;;4130616;28;20042;-78
2021/05/17 09:25:15;;;;;;;3.10;1.27;;;15.10;99.90;;;;;;4129549;28;20329;-78
2021/05/17 09:27:22;;;;;;;4.13;1.38;;;15.20;99.90;;;;;;4122766;28;20085;-78
2021/05/17 09:29:23;;;;;;;4.40;1.52;;;15.20;99.90;;;;;;4122337;28;20562;-79
2021/05/17 09:31:25;;;;;;;3.53;1.17;;;15.40;99.90;;;;;;4120452;28;20034;-79
2021/05/17 09:33:26;;;;;;;3.00;1.15;;;15.50;99.90;;;;;;4124234;28;20026;-78
2021/05/17 09:35:29;;;;;;;4.78;1.20;;;15.60;99.90;;;;;;4128053;28;20034;-78
2021/05/17 09:37:56;;;;;;;2.65;1.30;;;15.60;99.90;;;;;;4128763;28;20038;-78
2021/05/17 09:39:57;;;;;;;6.28;1.48;;;15.70;99.90;;;;;;4124102;28;20377;-78
2021/05/17 09:41:58;;;;;;;2.88;1.40;;;15.70;99.90;;;;;;4132995;28;20100;-79
2021/05/17 09:43:59;;;;;;;2.65;1.40;;;15.70;99.90;;;;;;4124330;28;20033;-78
2021/05/17 09:46:01;;;;;;;3.20;1.15;;;15.70;99.90;;;;;;4125803;28;20129;-78
2021/05/17 09:48:07;;;;;;;3.65;1.20;;;15.60;99.90;;;;;;4124631;28;20038;-78
2021/05/17 09:50:08;;;;;;;5.88;1.50;;;15.60;99.90;;;;;;4126978;28;20065;-78
2021/05/17 09:52:12;;;;;;;6.10;1.58;;;15.40;99.90;;;;;;4124182;28;20030;-78
2021/05/17 09:54:13;;;;;;;2.80;1.40;;;15.50;99.90;;;;;;4121285;28;20045;-78
2021/05/17 09:56:17;;;;;;;4.38;1.42;;;15.40;99.90;;;;;;4130073;28;20445;-78
2021/05/17 09:58:31;;;;;;;5.90;1.20;;;15.40;99.90;;;;;;4124419;28;20135;-78
2021/05/17 10:00:32;;;;;;;2.70;1.10;;;15.40;99.90;;;;;;4125776;28;20046;-78
2021/05/17 10:02:35;;;;;;;2.60;0.80;;;15.30;99.90;;;;;;4123382;28;20034;-78
2021/05/17 10:04:36;;;;;;;3.05;1.30;;;15.40;99.90;;;;;;4120520;28;20084;-78
2021/05/17 10:06:37;;;;;;;2.65;1.08;;;15.40;99.90;;;;;;4122510;28;20483;-79
2021/05/17 10:08:38;;;;;;;6.85;1.42;;;15.40;99.90;;;;;;4122607;28;20132;-79
2021/05/17 10:10:38;;;;;;;3.70;1.10;;;15.50;99.90;;;;;;4120131;28;20523;-78
2021/05/17 10:12:39;;;;;;;3.75;1.17;;;15.50;99.90;;;;;;4127921;28;20039;-78
2021/05/17 10:14:40;;;;;;;4.82;1.00;;;15.40;99.90;;;;;;4126084;28;20038;-78
2021/05/17 10:16:42;;;;;;;4.25;1.20;;;15.30;99.90;;;;;;4121962;28;20042;-78
2021/05/17 10:18:47;;;;;;;4.38;1.40;;;15.20;99.90;;;;;;4126266;28;20038;-79
2021/05/17 10:20:47;;;;;;;4.80;1.30;;;15.00;99.90;;;;;;4124223;28;20046;-78
2021/05/17 10:22:51;;;;;;;4.20;1.10;;;14.90;99.90;;;;;;4121686;28;20038;-79
2021/05/17 10:24:52;;;;;;;5.00;1.63;;;14.80;99.90;;;;;;4119915;28;20080;-78
2021/05/17 10:26:54;;;;;;;2.47;1.10;;;14.60;99.90;;;;;;4125014;28;20418;-79
2021/05/17 10:29:00;;;;;;;2.22;1.02;;;14.50;99.90;;;;;;4120959;28;20362;-78
2021/05/17 10:31:29;;;;;;;3.20;1.48;;;14.40;99.90;;;;;;4125123;28;20050;-78
2021/05/17 10:33:30;;;;;;;3.30;1.30;;;14.40;99.90;;;;;;4119555;28;20042;-79
2021/05/17 10:35:45;;;;;;;2.58;0.90;;;14.40;99.90;;;;;;4125797;28;20192;-78
2021/05/17 10:37:47;;;;;;;2.28;0.75;;;14.40;99.90;;;;;;4104781;28;20055;-78
2021/05/17 10:39:55;;;;;;;4.53;1.15;;;14.40;99.90;;;;;;4125857;28;20039;-79
2021/05/17 10:42:50;;;;;;;2.35;1.13;;;14.30;99.90;;;;;;4120523;28;20027;-80
2021/05/17 10:46:46;;;;;;;3.63;1.10;;;14.20;99.90;;;;;;4129275;28;20034;-78
2021/05/17 10:48:46;;;;;;;2.42;1.27;;;14.20;99.90;;;;;;4106394;28;20670;-78
2021/05/17 10:50:52;;;;;;;2.50;1.20;;;14.30;99.90;;;;;;4124958;28;20037;-78
2021/05/17 10:52:52;;;;;;;2.88;1.40;;;14.30;99.90;;;;;;4134369;28;20113;-78
2021/05/17 10:55:02;;;;;;;2.40;1.25;;;14.30;99.90;;;;;;4127575;28;20038;-79
2021/05/17 10:57:20;;;;;;;2.55;1.30;;;14.40;99.90;;;;;;4111239;28;20515;-78
2021/05/17 11:02:09;;;;;;;2.92;1.27;;;14.40;99.90;;;;;;4121306;28;20042;-78
2021/05/17 11:04:31;;;;;;;2.83;1.20;;;14.60;99.90;;;;;;4122765;28;20145;-79
2021/05/17 11:06:32;;;;;;;2.75;0.85;;;14.70;99.90;;;;;;4120150;28;20038;-78
2021/05/17 11:08:33;;;;;;;0.73;0.60;;;14.80;99.90;;;;;;4123478;28;20026;-78